Time;durP1;ratioP1;P1;durP2;ratioP2;P2;SDS_P1;SDS_P2;PMS_P1;PMS_P2;Temp;Humidity;BMP_temperature;BMP_pressure;BME280_temperature;BME280_humidity;BME280_pressure;Samples;Min_cycle;Max_cycle;Signal;HPM_P1;HPM_P2
2023/12/21 00:02:20;;;;;;;0.30;0.30;;;9.20;99.90;;;9.17;100.00;100304.59;5185639;28;20053;-49
2023/12/21 00:04:58;;;;;;;0.45;0.45;;;9.20;99.90;;;9.19;100.00;100303.84;5182952;28;20057;-49
2023/12/21 00:07:30;;;;;;;1.05;0.30;;;9.30;99.90;;;9.20;100.00;100290.00;5185248;28;20575;-49
2023/12/21 00:10:03;;;;;;;0.65;0.52;;;9.20;99.90;;;9.20;100.00;100292.59;5199587;28;20037;-49
2023/12/21 00:12:38;;;;;;;0.40;0.40;;;9.30;99.90;;;9.20;100.00;100295.19;5184759;28;20049;-49
2023/12/21 00:15:11;;;;;;;0.43;0.43;;;9.30;99.90;;;9.24;100.00;100285.75;5200411;28;20045;-50
2023/12/21 00:17:44;;;;;;;1.15;0.32;;;9.30;99.90;;;9.23;100.00;100273.59;5187193;28;20064;-50
2023/12/21 00:20:20;;;;;;;1.08;0.43;;;9.30;99.90;;;9.22;100.00;100277.91;5212034;28;20075;-50
2023/12/21 00:22:55;;;;;;;0.45;0.45;;;9.30;99.90;;;9.22;100.00;100282.22;5190806;28;20072;-50
2023/12/21 00:25:28;;;;;;;0.47;0.25;;;9.30;99.90;;;9.23;100.00;100276.19;5207481;28;20041;-49
2023/12/21 00:28:00;;;;;;;1.02;0.45;;;9.30;99.90;;;9.22;100.00;100274.44;5193662;28;20060;-50
2023/12/21 00:30:32;;;;;;;2.00;0.40;;;9.30;99.90;;;9.25;100.00;100271.91;5191278;28;20056;-50
2023/12/21 00:33:05;;;;;;;2.35;0.38;;;9.30;99.90;;;9.26;100.00;100268.50;5187983;28;20052;-51
2023/12/21 00:35:39;;;;;;;0.70;0.43;;;9.30;99.90;;;9.25;100.00;100257.19;5187046;28;20053;-49
2023/12/21 00:38:12;;;;;;;0.90;0.50;;;9.30;99.90;;;9.27;100.00;100264.19;5196278;28;20053;-50
2023/12/21 00:40:44;;;;;;;1.00;0.40;;;9.30;99.90;;;9.28;100.00;100272.03;5192278;28;20571;-49
2023/12/21 00:43:17;;;;;;;0.43;0.43;;;9.30;99.90;;;9.27;100.00;100253.78;5199562;28;20072;-50
2023/12/21 00:45:49;;;;;;;0.38;0.38;;;9.30;99.90;;;9.27;100.00;100239.06;5199240;28;20041;-50
2023/12/21 00:48:21;;;;;;;1.38;0.50;;;9.30;99.90;;;9.27;100.00;100249.47;5205722;28;20056;-50
2023/12/21 00:50:55;;;;;;;0.50;0.50;;;9.30;99.90;;;9.30;100.00;100244.34;5199511;28;20107;-52
2023/12/21 00:53:28;;;;;;;0.30;0.30;;;9.30;99.90;;;9.29;100.00;100247.78;5189304;28;20061;-51
2023/12/21 00:56:00;;;;;;;0.40;0.40;;;9.40;99.90;;;9.30;100.00;100233.06;5222186;28;20528;-50
2023/12/21 00:58:32;;;;;;;0.43;0.43;;;9.40;99.90;;;9.28;100.00;100229.53;5199285;28;20048;-50
2023/12/21 01:01:05;;;;;;;0.50;0.50;;;9.40;99.90;;;9.28;100.00;100224.34;5185383;28;20036;-50
2023/12/21 01:03:38;;;;;;;0.85;0.40;;;9.40;99.90;;;9.28;100.00;100221.72;5187438;28;20049;-50
2023/12/21 01:06:12;;;;;;;0.43;0.43;;;9.40;99.90;;;9.25;100.00;100222.50;5213115;28;20052;-51
2023/12/21 01:08:44;;;;;;;0.85;0.40;;;9.30;99.90;;;9.26;100.00;100208.69;5198213;28;20056;-53
2023/12/21 01:11:16;;;;;;;0.32;0.32;;;9.40;99.90;;;9.27;100.00;100207.84;5190954;28;20092;-51
2023/12/21 01:13:49;;;;;;;0.45;0.45;;;9.30;99.90;;;9.25;100.00;100207.78;5185235;28;20049;-51
2023/12/21 01:16:21;;;;;;;0.32;0.32;;;9.30;99.90;;;9.25;100.00;100212.09;5204146;28;20064;-49
2023/12/21 01:18:57;;;;;;;0.60;0.60;;;9.30;99.90;;;9.24;100.00;100203.41;5185711;28;20056;-50
2023/12/21 01:21:30;;;;;;;0.70;0.70;;;9.30;99.90;;;9.25;100.00;100204.28;5199182;28;20048;-51
2023/12/21 01:24:03;;;;;;;0.68;0.57;;;9.30;99.90;;;9.24;100.00;100200.81;5200463;28;20056;-50
2023/12/21 01:26:35;;;;;;;0.65;0.50;;;9.30;99.90;;;9.25;100.00;100196.50;5181651;28;20052;-50
2023/12/21 01:29:08;;;;;;;0.75;0.63;;;9.30;99.90;;;9.27;100.00;100200.03;5181426;28;20049;-49
2023/12/21 01:31:40;;;;;;;0.50;0.50;;;9.30;99.90;;;9.25;100.00;100192.16;5185961;28;20046;-52
2023/12/21 01:34:13;;;;;;;0.60;0.60;;;9.30;99.90;;;9.26;100.00;100195.69;5186921;28;20041;-49
2023/12/21 01:36:47;;;;;;;0.40;0.40;;;9.30;99.90;;;9.27;100.00;100187.03;5201730;28;20049;-49
2023/12/21 01:39:20;;;;;;;0.47;0.47;;;9.30;99.90;;;9.26;100.00;100180.06;5198423;28;20501;-52
2023/12/21 01:41:52;;;;;;;0.55;0.55;;;9.30;99.90;;;9.25;100.00;100183.50;5181931;28;20045;-50
2023/12/21 01:44:24;;;;;;;0.38;0.35;;;9.30;99.90;;;9.25;100.00;100173.09;5182920;28;20385;-53
2023/12/21 01:47:00;;;;;;;0.40;0.40;;;9.30;99.90;;;9.27;100.00;100178.34;5198507;28;20501;-50
2023/12/21 01:49:33;;;;;;;0.60;0.40;;;9.30;99.90;;;9.25;100.00;100163.56;5182259;28;20041;-50
2023/12/21 01:52:07;;;;;;;0.75;0.50;;;9.30;99.90;;;9.25;100.00;100147.06;5208191;28;20052;-50
2023/12/21 01:54:40;;;;;;;0.50;0.43;;;9.30;99.90;;;9.25;100.00;100136.69;5182724;28;20103;-50
2023/12/21 01:57:13;;;;;;;0.22;0.20;;;9.30;99.90;;;9.26;100.00;100138.47;5186677;28;20381;-50
2023/12/21 01:59:47;;;;;;;0.57;0.57;;;9.30;99.90;;;9.26;100.00;100128.06;5186945;28;20132;-49
2023/12/21 02:02:20;;;;;;;0.93;0.30;;;9.30;99.90;;;9.27;100.00;100134.16;5182941;28;20392;-50
2023/12/21 02:04:52;;;;;;;0.38;0.38;;;9.30;99.90;;;9.28;100.00;100136.78;5181303;28;20061;-50
2023/12/21 02:07:26;;;;;;;1.00;0.40;;;9.30;99.90;;;9.28;100.00;100130.72;5188262;28;20056;-50
2023/12/21 02:09:59;;;;;;;0.40;0.38;;;9.30;99.90;;;9.27;100.00;100116.81;5184847;28;20069;-51
2023/12/21 02:12:31;;;;;;;0.35;0.35;;;9.40;99.90;;;9.28;100.00;100104.69;5180445;28;20129;-50
2023/12/21 02:15:09;;;;;;;0.38;0.35;;;9.30;99.90;;;9.29;100.00;100109.94;5197841;28;20136;-50
2023/12/21 02:17:43;;;;;;;1.08;0.38;;;9.30;99.90;;;9.30;100.00;100100.41;5182339;28;20052;-52
2023/12/21 02:20:16;;;;;;;;;;;9.30;99.90;;;9.30;100.00;100103.88;5183657;28;20048;-50
2023/12/21 02:22:54;;;;;;;0.52;0.45;;;9.30;99.90;;;9.30;100.00;100101.28;5181626;28;19925;-49
2023/12/21 02:25:29;;;;;;;0.32;0.32;;;9.40;99.90;;;9.32;100.00;100099.59;5181110;28;20042;-50
2023/12/21 02:28:01;;;;;;;0.40;0.40;;;9.40;99.90;;;9.32;100.00;100091.81;5205594;28;20255;-50
2023/12/21 02:30:33;;;;;;;0.30;0.30;;;9.40;99.90;;;9.33;100.00;100088.38;5200145;28;20069;-51
2023/12/21 02:33:09;;;;;;;0.50;0.50;;;9.40;99.90;;;9.34;100.00;100078.88;5180810;28;20058;-51
2023/12/21 02:35:42;;;;;;;0.32;0.32;;;9.40;99.90;;;9.34;100.00;100087.53;5186025;28;20416;-49
2023/12/21 02:38:14;;;;;;;0.30;0.30;;;9.40;99.90;;;9.36;100.00;100082.38;5187018;28;20413;-49
2023/12/21 02:40:48;;;;;;;0.65;0.65;;;9.40;99.90;;;9.37;100.00;100085.00;5202743;28;20052;-49
2023/12/21 02:43:20;;;;;;;0.30;0.30;;;9.40;99.90;;;9.38;100.00;100081.56;5198838;28;20053;-50
2023/12/21 02:45:53;;;;;;;0.20;0.20;;;9.40;99.90;;;9.38;100.00;100076.38;5201707;28;20273;-50
2023/12/21 02:48:25;;;;;;;0.32;0.32;;;9.50;99.90;;;9.39;100.00;100077.25;5208913;28;20048;-49
2023/12/21 02:50:58;;;;;;;0.30;0.30;;;9.40;99.90;;;9.40;100.00;100072.13;5186828;28;20041;-50
2023/12/21 02:53:30;;;;;;;0.52;0.40;;;9.50;99.90;;;9.41;100.00;100070.41;5187034;28;20057;-52
2023/12/21 02:56:05;;;;;;;0.32;0.32;;;9.50;99.90;;;9.40;100.00;100069.50;5202327;28;20521;-50
2023/12/21 02:58:37;;;;;;;0.57;0.52;;;9.50;99.90;;;9.40;100.00;100064.31;5194789;28;20049;-50
2023/12/21 03:01:10;;;;;;;0.52;0.52;;;9.50;99.90;;;9.41;100.00;100060.00;5191372;28;20041;-50
2023/12/21 03:03:42;;;;;;;0.43;0.43;;;9.50;99.90;;;9.40;100.00;100059.09;5192806;28;20077;-49
2023/12/21 03:06:15;;;;;;;1.27;0.50;;;9.50;99.90;;;9.41;100.00;100060.88;5204473;28;20057;-49
2023/12/21 03:08:47;;;;;;;0.57;0.55;;;9.50;99.90;;;9.40;100.00;100053.91;5201479;28;20045;-50
2023/12/21 03:11:21;;;;;;;0.68;0.50;;;9.50;99.90;;;9.39;100.00;100046.94;5215065;28;20060;-48
2023/12/21 03:13:53;;;;;;;0.40;0.40;;;9.50;99.90;;;9.39;100.00;100038.22;5185252;28;20061;-52
2023/12/21 03:16:25;;;;;;;0.57;0.52;;;9.50;99.90;;;9.39;100.00;100030.44;5203606;28;20045;-50
2023/12/21 03:18:58;;;;;;;0.70;0.30;;;9.50;99.90;;;9.38;100.00;100029.56;5218069;28;20051;-50
2023/12/21 03:21:30;;;;;;;0.47;0.47;;;9.40;99.90;;;9.38;100.00;100019.16;5208269;28;20057;-49
2023/12/21 03:24:03;;;;;;;0.55;0.52;;;9.50;99.90;;;9.39;100.00;100020.03;5223161;28;20528;-49
2023/12/21 03:26:37;;;;;;;0.75;0.63;;;9.50;99.90;;;9.39;100.00;100015.75;5206015;28;20056;-49
2023/12/21 03:29:09;;;;;;;1.02;0.68;;;9.50;99.90;;;9.38;100.00;100021.75;5192363;28;20496;-49
2023/12/21 03:31:41;;;;;;;1.55;0.75;;;9.50;99.90;;;9.40;100.00;100016.63;5210044;28;20065;-49
2023/12/21 03:34:14;;;;;;;0.90;0.63;;;9.40;99.90;;;9.39;100.00;100010.53;5185181;28;20055;-52
2023/12/21 03:36:46;;;;;;;0.70;0.60;;;9.50;99.90;;;9.38;100.00;100007.88;5184359;28;20509;-50
2023/12/21 03:39:21;;;;;;;0.43;0.43;;;9.40;99.90;;;9.38;100.00;100021.75;5190609;28;20057;-49
2023/12/21 03:41:56;;;;;;;0.50;0.50;;;9.40;99.90;;;9.37;100.00;99991.38;5196291;28;20053;-49
2023/12/21 03:44:28;;;;;;;0.40;0.30;;;9.40;99.90;;;9.38;100.00;99974.06;5208500;28;20416;-51
2023/12/21 03:47:04;;;;;;;0.43;0.43;;;9.40;99.90;;;9.36;100.00;99957.53;5216274;28;20050;-50
2023/12/21 03:49:37;;;;;;;0.30;0.30;;;9.50;99.90;;;9.34;100.00;99949.69;5191001;28;20412;-50
2023/12/21 03:52:09;;;;;;;1.17;0.40;;;9.40;99.90;;;9.35;100.00;99946.25;5199721;28;20052;-50
2023/12/21 03:54:42;;;;;;;0.43;0.40;;;9.40;99.90;;;9.34;100.00;99948.81;5190619;28;20076;-49
2023/12/21 03:57:15;;;;;;;0.20;0.20;;;9.40;99.90;;;9.31;100.00;99923.59;5201806;28;20412;-49
2023/12/21 03:59:48;;;;;;;0.50;0.50;;;9.40;99.90;;;9.31;100.00;99902.78;5202424;28;20049;-49
2023/12/21 04:02:20;;;;;;;0.47;0.40;;;9.40;99.90;;;9.30;100.00;99901.03;5185300;28;20064;-50
2023/12/21 04:04:52;;;;;;;1.10;0.50;;;9.40;99.90;;;9.32;100.00;99909.75;5202710;28;20045;-49
2023/12/21 04:07:25;;;;;;;0.32;0.32;;;9.40;99.90;;;9.30;100.00;99907.97;5192876;28;20500;-49
2023/12/21 04:09:57;;;;;;;0.30;0.30;;;9.40;99.90;;;9.30;100.00;99905.34;5202074;28;20053;-51
2023/12/21 04:12:31;;;;;;;0.35;0.35;;;9.40;99.90;;;9.31;100.00;99912.31;5211822;28;20397;-50
2023/12/21 04:15:04;;;;;;;0.40;0.40;;;9.30;99.90;;;9.31;100.00;99913.19;5201076;28;20060;-50
2023/12/21 04:17:36;;;;;;;0.35;0.35;;;9.30;99.90;;;9.31;100.00;99912.31;5193785;28;20629;-50
2023/12/21 04:20:11;;;;;;;0.43;0.43;;;9.40;99.90;;;9.31;100.00;99900.19;5189850;28;20416;-50
2023/12/21 04:22:43;;;;;;;0.40;0.30;;;9.40;99.90;;;9.33;100.00;99889.84;5185380;28;20245;-51
2023/12/21 04:25:19;;;;;;;0.65;0.32;;;9.40;99.90;;;9.32;100.00;99883.75;5183909;28;20041;-51
2023/12/21 04:27:52;;;;;;;0.30;0.30;;;9.40;99.90;;;9.32;100.00;99881.13;5200399;28;20057;-50
2023/12/21 04:30:25;;;;;;;0.40;0.40;;;9.40;99.90;;;9.32;100.00;99875.94;5198505;28;20053;-49
2023/12/21 04:32:58;;;;;;;0.95;0.20;;;9.40;99.90;;;9.30;100.00;99875.03;5209892;28;20053;-49
2023/12/21 04:35:30;;;;;;;0.35;0.35;;;9.40;99.90;;;9.31;100.00;99860.31;5187550;28;20144;-51
2023/12/21 04:38:03;;;;;;;0.40;0.40;;;9.40;99.90;;;9.30;100.00;99863.75;5183773;28;20531;-49
2023/12/21 04:40:35;;;;;;;0.30;0.30;;;9.40;99.90;;;9.30;100.00;99880.22;5183819;28;20050;-49
2023/12/21 04:43:08;;;;;;;1.77;0.55;;;9.30;99.90;;;9.29;100.00;99867.19;5214378;28;20053;-50
2023/12/21 04:45:40;;;;;;;0.65;0.30;;;9.30;99.90;;;9.29;100.00;99860.28;5181666;28;20089;-49
2023/12/21 04:48:12;;;;;;;0.22;0.22;;;9.40;99.90;;;9.29;100.00;99852.47;5200184;28;20043;-52
2023/12/21 04:50:45;;;;;;;2.38;0.30;;;9.40;99.90;;;9.28;100.00;99840.31;5184469;28;20054;-51
2023/12/21 04:53:17;;;;;;;0.63;0.30;;;9.30;99.90;;;9.28;100.00;99839.44;5204148;28;20068;-50
2023/12/21 04:55:50;;;;;;;0.22;0.22;;;9.30;99.90;;;9.25;100.00;99841.09;5200616;28;20068;-49
2023/12/21 04:58:23;;;;;;;0.22;0.22;;;9.30;99.90;;;9.24;100.00;99834.13;5182774;28;20053;-50
2023/12/21 05:00:55;;;;;;;0.90;0.30;;;9.30;99.90;;;9.25;100.00;99837.63;5197479;28;20060;-49
2023/12/21 05:03:28;;;;;;;0.95;0.40;;;9.30;99.90;;;9.25;100.00;99835.03;5190730;28;20045;-51
2023/12/21 05:06:00;;;;;;;0.85;0.25;;;9.30;99.90;;;9.26;100.00;99826.41;5188913;28;20077;-51
2023/12/21 05:08:33;;;;;;;0.40;0.40;;;9.30;99.90;;;9.25;100.00;99822.88;5202459;28;20405;-49
2023/12/21 05:11:05;;;;;;;0.30;0.30;;;9.30;99.90;;;9.27;100.00;99827.28;5181542;28;20057;-50
2023/12/21 05:13:39;;;;;;;0.32;0.32;;;9.30;99.90;;;9.29;100.00;99818.66;5186439;28;20057;-51
2023/12/21 05:16:11;;;;;;;0.20;0.20;;;9.30;99.90;;;9.27;100.00;99822.97;5216167;28;20178;-50
2023/12/21 05:18:44;;;;;;;0.20;0.20;;;9.30;99.90;;;9.27;100.00;99809.94;5206544;28;20419;-50
2023/12/21 05:21:16;;;;;;;0.63;0.22;;;9.30;99.90;;;9.27;100.00;99796.94;5203125;28;20048;-50
2023/12/21 05:23:49;;;;;;;0.52;0.52;;;9.30;99.90;;;9.27;100.00;99791.75;5201486;28;20060;-49
2023/12/21 05:26:21;;;;;;;0.32;0.32;;;9.30;99.90;;;9.29;100.00;99790.06;5182894;28;20049;-49
2023/12/21 05:28:57;;;;;;;0.30;0.30;;;9.30;99.90;;;9.27;100.00;99778.75;5183905;28;20049;-50
2023/12/21 05:31:34;;;;;;;1.08;0.40;;;9.30;99.90;;;9.30;100.00;99764.94;5185184;28;20061;-49
2023/12/21 05:34:06;;;;;;;0.85;0.30;;;9.30;99.90;;;9.29;100.00;99761.44;5180505;28;20490;-50
2023/12/21 05:36:38;;;;;;;0.73;0.30;;;9.30;99.90;;;9.28;100.00;99764.91;5200752;28;20068;-50
2023/12/21 05:39:11;;;;;;;1.85;0.40;;;9.30;99.90;;;9.34;100.00;99761.56;5203091;28;20835;-48
2023/12/21 05:41:43;;;;;;;1.20;0.57;;;9.40;99.90;;;9.33;100.00;99763.28;5206695;28;20049;-48
2023/12/21 05:44:17;;;;;;;0.80;0.50;;;9.40;99.90;;;9.31;100.00;99751.94;5183564;28;20052;-49
2023/12/21 05:46:49;;;;;;;0.38;0.38;;;9.40;99.90;;;9.30;100.00;99750.19;5203708;28;20077;-49
2023/12/21 05:49:21;;;;;;;0.35;0.22;;;9.40;99.90;;;9.27;100.00;99747.53;5209063;28;20065;-49
2023/12/21 05:51:54;;;;;;;1.02;0.30;;;9.30;99.90;;;9.27;100.00;99726.75;5205152;28;20512;-49
2023/12/21 05:54:27;;;;;;;0.30;0.22;;;9.30;99.90;;;9.30;100.00;99725.91;5175954;28;20049;-47
2023/12/21 05:57:00;;;;;;;0.95;0.40;;;9.40;99.90;;;9.30;100.00;99719.00;5204023;28;20057;-48
2023/12/21 05:59:34;;;;;;;0.35;0.35;;;9.40;99.90;;;9.32;100.00;99732.91;5187571;28;20056;-49
2023/12/21 06:02:06;;;;;;;0.40;0.40;;;9.40;99.90;;;9.33;100.00;99726.00;5191987;28;20049;-49
2023/12/21 06:04:39;;;;;;;1.75;0.50;;;9.40;99.90;;;9.32;100.00;99706.91;5185945;28;20056;-49
2023/12/21 06:07:11;;;;;;;0.32;0.32;;;9.40;99.90;;;9.33;100.00;99703.47;5204545;28;20049;-49
2023/12/21 06:09:44;;;;;;;0.32;0.32;;;9.40;99.90;;;9.34;100.00;99699.16;5204022;28;20068;-49
2023/12/21 06:12:16;;;;;;;0.32;0.22;;;9.40;99.90;;;9.33;100.00;99690.47;5207791;28;20053;-49
2023/12/21 06:14:50;;;;;;;0.40;0.30;;;9.40;99.90;;;9.35;100.00;99690.50;5212824;28;20175;-50
2023/12/21 06:17:22;;;;;;;0.40;0.38;;;9.40;99.90;;;9.37;100.00;99705.28;5186425;28;20053;-48
2023/12/21 06:19:54;;;;;;;0.30;0.30;;;9.40;99.90;;;9.38;100.00;99703.56;5209137;28;20175;-49
2023/12/21 06:22:27;;;;;;;0.30;0.28;;;9.40;99.90;;;9.39;100.00;99698.41;5229193;28;20053;-49
2023/12/21 06:24:59;;;;;;;0.50;0.50;;;9.50;99.90;;;9.41;100.00;99701.03;5191983;28;20057;-49
2023/12/21 06:27:31;;;;;;;0.32;0.32;;;9.50;99.90;;;9.45;100.00;99693.34;5208205;28;20081;-50
2023/12/21 06:30:07;;;;;;;2.60;0.40;;;9.50;99.90;;;9.45;100.00;99693.34;5204512;28;20049;-48
2023/12/21 06:32:41;;;;;;;1.98;0.60;;;9.50;99.90;;;9.46;100.00;99682.09;5185826;28;20040;-49
2023/12/21 06:35:13;;;;;;;0.30;0.30;;;9.50;99.90;;;9.47;100.00;99676.03;5206288;28;20380;-49
2023/12/21 06:37:46;;;;;;;0.28;0.22;;;9.50;99.90;;;9.47;100.00;99676.03;5183661;28;20131;-49
2023/12/21 06:40:18;;;;;;;0.40;0.40;;;9.50;99.90;;;9.48;100.00;99692.53;5211316;28;20128;-50
2023/12/21 06:42:50;;;;;;;0.43;0.43;;;9.60;99.90;;;9.49;100.00;99697.75;5204781;28;20046;-49
2023/12/21 06:45:24;;;;;;;0.47;0.32;;;9.50;99.90;;;9.52;100.00;99695.22;5184980;28;20417;-47
2023/12/21 06:47:59;;;;;;;0.45;0.40;;;9.60;99.90;;;9.56;100.00;99705.69;5195718;28;20046;-49
2023/12/21 06:50:32;;;;;;;0.40;0.22;;;9.60;99.90;;;9.56;100.00;99690.94;5200798;28;20489;-49
2023/12/21 06:53:04;;;;;;;4.05;0.50;;;9.60;99.90;;;9.58;100.00;99683.16;5207945;28;20519;-49
2023/12/21 06:55:37;;;;;;;1.67;0.45;;;9.60;99.90;;;9.58;100.00;99677.97;5210296;28;20049;-49
2023/12/21 06:58:09;;;;;;;0.55;0.55;;;9.60;99.90;;;9.59;100.00;99661.53;5208869;28;20041;-49
2023/12/21 07:00:43;;;;;;;0.43;0.43;;;9.60;99.90;;;9.60;100.00;99668.50;5207663;28;20270;-49
2023/12/21 07:03:15;;;;;;;0.50;0.50;;;9.60;99.90;;;9.61;100.00;99671.13;5201987;28;20532;-50
2023/12/21 07:05:49;;;;;;;0.95;0.50;;;9.70;99.90;;;9.63;100.00;99650.34;5201304;28;20473;-49
2023/12/21 07:08:22;;;;;;;1.50;0.60;;;9.70;99.90;;;9.65;100.00;99646.03;5190907;28;20679;-48
2023/12/21 07:10:54;;;;;;;0.43;0.43;;;9.70;99.90;;;9.67;100.00;99646.97;5192690;28;20038;-50
2023/12/21 07:13:30;;;;;;;0.73;0.68;;;9.70;99.90;;;9.67;100.00;99637.44;5206950;28;20103;-50
2023/12/21 07:16:04;;;;;;;1.67;0.80;;;9.80;99.90;;;9.69;100.00;99634.84;5196901;28;20057;-49
2023/12/21 07:18:36;;;;;;;1.13;0.80;;;9.70;99.90;;;9.70;100.00;99647.88;5185469;28;20049;-49
2023/12/21 07:21:09;;;;;;;1.33;0.50;;;9.80;99.90;;;9.73;100.00;99655.75;5224398;28;20052;-50
2023/12/21 07:23:41;;;;;;;1.55;0.63;;;9.80;99.90;;;9.74;100.00;99639.31;5189621;28;20057;-49
2023/12/21 07:26:13;;;;;;;1.75;0.70;;;9.80;99.90;;;9.76;100.00;99648.00;5209429;28;20046;-49
2023/12/21 07:28:46;;;;;;;1.02;0.63;;;9.80;99.90;;;9.78;100.00;99640.25;5147772;28;20050;-49
2023/12/21 07:31:20;;;;;;;2.25;0.80;;;9.80;99.90;;;9.79;100.00;99647.19;5195949;28;20082;-50
2023/12/21 07:33:52;;;;;;;1.52;0.73;;;9.80;99.90;;;9.79;100.00;99634.19;5185715;28;20054;-49
2023/12/21 07:36:25;;;;;;;3.30;0.95;;;9.80;99.90;;;9.79;100.00;99637.66;5198269;28;20049;-49
2023/12/21 07:38:57;;;;;;;0.73;0.68;;;9.80;99.90;;;9.82;100.00;99630.75;5201118;28;20045;-48
2023/12/21 07:41:30;;;;;;;3.08;0.77;;;9.90;99.90;;;9.82;100.00;99623.81;5176899;28;20041;-49
2023/12/21 07:44:02;;;;;;;2.33;0.95;;;9.90;99.90;;;9.83;100.00;99620.38;5208028;28;20050;-50
2023/12/21 07:46:36;;;;;;;2.78;1.25;;;9.90;99.90;;;9.86;100.00;99612.63;5183801;28;20056;-50
2023/12/21 07:49:08;;;;;;;2.42;1.00;;;9.90;99.90;;;9.87;100.00;99601.38;5216317;28;20052;-50
2023/12/21 07:51:41;;;;;;;2.63;1.00;;;9.90;99.90;;;9.87;100.00;99588.38;5212837;28;20052;-50
2023/12/21 07:54:13;;;;;;;2.05;0.95;;;9.90;99.90;;;9.85;100.00;99579.66;5203111;28;20053;-49
2023/12/21 07:56:46;;;;;;;3.42;1.15;;;9.90;99.90;;;9.91;100.00;99577.16;5201152;28;20049;-49
2023/12/21 07:59:18;;;;;;;1.60;0.93;;;9.90;99.90;;;9.89;100.00;99565.81;5201983;28;20056;-50
2023/12/21 08:01:52;;;;;;;1.50;0.90;;;9.90;99.90;;;9.90;100.00;99554.56;5184320;28;20128;-49
2023/12/21 08:04:24;;;;;;;2.33;0.75;;;9.90;99.90;;;9.90;100.00;99546.75;5171120;28;20054;-49
2023/12/21 08:06:57;;;;;;;3.58;1.00;;;10.00;99.90;;;9.92;100.00;99537.28;5208737;28;20060;-49
2023/12/21 08:09:30;;;;;;;4.70;0.82;;;10.00;99.90;;;9.95;100.00;99519.09;5198177;28;20046;-50
2023/12/21 08:12:02;;;;;;;1.77;0.85;;;10.00;99.90;;;9.96;100.00;99513.03;5197980;28;20069;-48
2023/12/21 08:14:36;;;;;;;2.17;0.90;;;10.00;99.90;;;9.97;100.00;99501.75;5199043;28;20045;-50
2023/12/21 08:17:10;;;;;;;2.03;1.38;;;10.00;99.90;;;10.01;100.00;99503.56;5179208;28;20124;-49
2023/12/21 08:19:46;;;;;;;2.85;1.33;;;10.10;99.90;;;10.02;100.00;99494.91;5186917;28;20049;-48
2023/12/21 08:22:18;;;;;;;1.45;0.80;;;10.00;99.90;;;10.03;100.00;99483.63;5202956;28;20049;-50
2023/12/21 08:24:51;;;;;;;1.42;1.13;;;10.10;99.90;;;10.03;100.00;99477.56;5206225;28;20053;-51
2023/12/21 08:27:23;;;;;;;1.83;0.82;;;10.10;99.90;;;10.04;100.00;99482.81;5206063;28;20049;-48
2023/12/21 08:29:59;;;;;;;1.60;0.52;;;10.10;99.90;;;10.10;100.00;99471.59;5178151;28;20038;-49
2023/12/21 08:32:33;;;;;;;3.20;1.00;;;10.10;99.90;;;10.25;100.00;99471.00;5185653;28;20040;-50
2023/12/21 08:35:06;;;;;;;2.78;1.13;;;10.30;99.90;;;10.29;100.00;99470.19;5201626;28;20382;-49
2023/12/21 08:37:42;;;;;;;2.58;0.90;;;10.30;99.90;;;10.28;100.00;99447.59;5203497;28;20056;-49
2023/12/21 08:40:16;;;;;;;1.75;1.00;;;10.30;99.90;;;10.27;100.00;99438.03;5200888;28;20044;-49
2023/12/21 08:42:49;;;;;;;2.90;1.08;;;10.30;99.90;;;10.27;100.00;99422.41;5199703;28;20045;-48
2023/12/21 08:45:22;;;;;;;2.25;0.95;;;10.30;99.90;;;10.26;100.00;99411.13;5181222;28;20115;-49
2023/12/21 08:47:59;;;;;;;4.32;1.00;;;10.30;99.90;;;10.26;100.00;99418.06;5199825;28;20100;-49
2023/12/21 08:50:32;;;;;;;4.78;1.20;;;10.30;99.90;;;10.28;100.00;99403.31;5220713;28;20416;-49
2023/12/21 08:53:04;;;;;;;3.40;1.30;;;10.30;99.90;;;10.28;100.00;99404.19;5203362;28;20443;-50
2023/12/21 08:55:39;;;;;;;4.68;1.08;;;10.30;99.90;;;10.32;100.00;99405.13;5199962;28;20046;-50
2023/12/21 08:58:12;;;;;;;2.75;1.10;;;10.40;99.90;;;10.34;100.00;99403.41;5198484;28;20056;-49
2023/12/21 09:00:45;;;;;;;2.08;1.02;;;10.40;99.90;;;10.35;100.00;99407.75;5204750;28;20408;-49
2023/12/21 09:03:19;;;;;;;3.47;1.00;;;10.40;99.90;;;10.37;100.00;99408.69;5205157;28;20409;-48
2023/12/21 09:05:55;;;;;;;1.10;0.93;;;10.40;99.90;;;10.36;100.00;99422.53;5183703;28;20056;-49
2023/12/21 09:08:27;;;;;;;1.20;0.90;;;10.40;99.90;;;10.36;100.00;99422.53;5188129;28;20049;-47
2023/12/21 09:10:59;;;;;;;3.10;0.93;;;10.40;99.90;;;10.39;100.00;99406.09;5200137;28;20050;-49
2023/12/21 09:13:32;;;;;;;2.10;1.08;;;10.40;99.90;;;10.40;100.00;99402.63;5205788;28;20052;-49
2023/12/21 09:16:06;;;;;;;5.63;1.40;;;10.40;99.90;;;10.36;100.00;99393.00;5184539;28;20132;-49
2023/12/21 09:18:39;;;;;;;2.72;1.20;;;10.40;99.90;;;10.36;100.00;99380.84;5165416;28;20280;-49
2023/12/21 09:21:12;;;;;;;2.40;1.00;;;10.40;99.90;;;10.36;100.00;99382.59;5203310;28;20048;-50
2023/12/21 09:23:44;;;;;;;2.10;0.95;;;10.40;99.90;;;10.31;100.00;99377.34;5201188;28;20048;-49
2023/12/21 09:26:16;;;;;;;2.70;0.85;;;10.30;99.90;;;10.31;100.00;99375.59;5184221;28;20061;-49
2023/12/21 09:28:49;;;;;;;2.35;0.85;;;10.40;99.90;;;10.29;100.00;99368.59;5205623;28;20526;-48
2023/12/21 09:31:22;;;;;;;3.17;0.95;;;10.40;99.90;;;10.28;100.00;99382.50;5186430;28;20064;-49
2023/12/21 09:33:56;;;;;;;3.67;0.93;;;10.30;99.90;;;10.26;100.00;99379.00;5201830;28;20119;-50
2023/12/21 09:36:28;;;;;;;2.50;1.38;;;10.30;99.90;;;10.28;100.00;99364.25;5204107;28;20056;-51
2023/12/21 09:39:00;;;;;;;1.25;0.90;;;10.30;99.90;;;10.23;100.00;99365.91;5201928;28;20536;-49
2023/12/21 09:41:33;;;;;;;1.40;0.93;;;10.30;99.90;;;10.23;100.00;99373.72;5203178;28;20052;-51
2023/12/21 09:44:06;;;;;;;1.30;0.77;;;10.30;99.90;;;10.23;100.00;99373.72;5186023;28;20420;-49
2023/12/21 09:46:39;;;;;;;2.20;0.80;;;10.30;99.90;;;10.23;100.00;99363.31;5176927;28;20045;-49
2023/12/21 09:49:15;;;;;;;1.13;0.70;;;10.30;99.90;;;10.23;100.00;99358.97;5203365;28;20041;-50
2023/12/21 09:51:50;;;;;;;1.20;0.73;;;10.20;99.90;;;10.24;100.00;99354.69;5201867;28;20060;-50
2023/12/21 09:54:23;;;;;;;2.40;0.70;;;10.30;99.90;;;10.24;100.00;99352.94;5217018;28;20566;-50
2023/12/21 09:56:56;;;;;;;1.75;0.63;;;10.30;99.90;;;10.25;100.00;99340.78;5204938;28;20527;-48
2023/12/21 09:59:30;;;;;;;1.02;0.73;;;10.30;99.90;;;10.25;100.00;99331.25;5183866;28;20056;-49
2023/12/21 10:02:11;;;;;;;0.65;0.60;;;10.30;99.90;;;10.26;100.00;99316.50;5200385;28;20046;-48
2023/12/21 10:04:45;;;;;;;1.40;0.73;;;10.30;99.90;;;10.28;100.00;99312.16;5194740;28;20112;-47
2023/12/21 10:07:18;;;;;;;1.20;0.57;;;10.30;99.90;;;10.28;100.00;99309.56;5174720;28;20421;-50
2023/12/21 10:09:50;;;;;;;1.15;0.60;;;10.30;99.90;;;10.28;100.00;99309.56;5180786;28;20038;-49
2023/12/21 10:12:23;;;;;;;0.70;0.50;;;10.30;99.90;;;10.29;100.00;99316.53;5197459;28;20061;-51
2023/12/21 10:14:59;;;;;;;1.00;0.45;;;10.30;99.90;;;10.27;100.00;99308.69;5181690;28;20089;-50
2023/12/21 10:17:32;;;;;;;2.25;0.57;;;10.30;99.90;;;10.31;100.00;99288.78;5184769;28;20127;-49
2023/12/21 10:20:12;;;;;;;1.27;0.55;;;10.30;99.90;;;10.30;100.00;99306.16;5197318;28;20037;-48
2023/12/21 10:22:44;;;;;;;0.80;0.45;;;10.30;99.90;;;10.32;100.00;99299.22;5173741;28;20052;-50
2023/12/21 10:25:17;;;;;;;1.75;0.40;;;10.30;99.90;;;10.33;100.00;99315.72;5195652;28;20076;-49
2023/12/21 10:27:56;;;;;;;0.40;0.40;;;10.40;99.90;;;10.33;100.00;99297.47;5184203;28;20049;-48
2023/12/21 10:30:29;;;;;;;0.35;0.35;;;10.40;99.90;;;10.34;100.00;99286.22;5200070;28;20061;-50
2023/12/21 10:33:02;;;;;;;2.05;0.50;;;10.40;99.90;;;10.32;100.00;99285.31;5181050;28;20591;-50
2023/12/21 10:35:38;;;;;;;0.38;0.32;;;10.40;99.90;;;10.35;100.00;99289.69;5183078;28;20077;-51
2023/12/21 10:38:14;;;;;;;0.45;0.45;;;10.40;99.90;;;10.35;100.00;99280.13;5201918;28;20049;-51
2023/12/21 10:40:46;;;;;;;2.58;0.60;;;10.40;99.90;;;10.35;100.00;99274.94;5197522;28;20046;-49
2023/12/21 10:43:19;;;;;;;0.55;0.40;;;10.40;99.90;;;10.37;100.00;99288.88;5213188;28;20057;-49
2023/12/21 10:45:56;;;;;;;0.40;0.40;;;10.40;99.90;;;10.36;100.00;99276.66;5179919;28;20057;-49